createdAt,value
2023-05-05T00:02:29.368Z,59.39
2023-05-05T00:05:00.958Z,60.76
2023-05-05T00:07:36.037Z,61.24
2023-05-05T00:10:07.872Z,60.64
2023-05-05T00:12:39.561Z,58.93
2023-05-05T00:15:11.302Z,57.38
2023-05-05T00:17:42.936Z,57.48
2023-05-05T00:20:14.969Z,57.89
2023-05-05T00:22:46.501Z,56.86
2023-05-05T00:25:18.132Z,56.83
2023-05-05T00:27:49.762Z,56.84
2023-05-05T00:30:21.716Z,56.27
2023-05-05T00:32:54.781Z,56.50
2023-05-05T00:35:27.292Z,56.03
2023-05-05T00:37:59.581Z,56.12
2023-05-05T00:40:33.963Z,56.23
2023-05-05T00:43:05.604Z,55.90
2023-05-05T00:45:39.107Z,56.40
2023-05-05T00:48:11.153Z,56.45
2023-05-05T00:50:43.974Z,57.00
2023-05-05T00:53:15.805Z,57.61
2023-05-05T00:55:47.475Z,57.76
2023-05-05T00:58:19.043Z,56.38
2023-05-05T01:00:50.669Z,57.79
2023-05-05T01:03:22.340Z,58.00
2023-05-05T01:06:15.658Z,58.23
2023-05-05T01:09:08.950Z,59.37
2023-05-05T01:11:57.945Z,59.22
2023-05-05T01:15:03.288Z,59.93
2023-05-05T01:17:58.800Z,59.78
2023-05-05T01:20:49.493Z,60.08
2023-05-05T01:23:50.391Z,60.49
2023-05-05T01:27:00.506Z,61.50
2023-05-05T01:30:03.401Z,60.61
2023-05-05T01:32:43.700Z,60.99
2023-05-05T01:35:20.727Z,60.99
2023-05-05T01:38:05.720Z,60.82
2023-05-05T01:41:12.343Z,60.49
2023-05-05T01:43:48.507Z,60.80
2023-05-05T01:46:23.761Z,60.07
2023-05-05T01:48:56.982Z,59.68
2023-05-05T01:51:29.504Z,59.89
2023-05-05T01:54:05.682Z,59.07
2023-05-05T01:56:41.818Z,58.53
2023-05-05T01:59:13.901Z,58.48
2023-05-05T02:01:48.701Z,59.74
2023-05-05T02:04:22.907Z,61.52
2023-05-05T02:06:56.441Z,60.26
2023-05-05T02:09:34.305Z,60.11
2023-05-05T02:12:08.188Z,59.99
2023-05-05T02:14:42.485Z,60.70
2023-05-05T02:17:17.033Z,60.55
2023-05-05T02:19:52.519Z,61.21
2023-05-05T02:22:24.360Z,61.07
2023-05-05T02:24:59.069Z,60.28
2023-05-05T02:27:33.980Z,59.65
2023-05-05T02:30:11.145Z,59.82
2023-05-05T02:32:56.666Z,58.99
2023-05-05T02:35:41.033Z,60.53
2023-05-05T02:38:18.622Z,60.23
2023-05-05T02:40:59.287Z,60.63
2023-05-05T02:43:31.989Z,60.63
2023-05-05T02:46:03.606Z,60.82
2023-05-05T02:48:43.124Z,60.02
2023-05-05T02:51:14.739Z,60.14
2023-05-05T02:53:46.600Z,60.60
2023-05-05T02:56:49.027Z,61.30
2023-05-05T03:00:07.377Z,61.55
2023-05-05T03:03:03.095Z,60.99
2023-05-05T03:05:45.895Z,62.31
2023-05-05T03:08:28.232Z,62.53
2023-05-05T03:11:06.510Z,61.62
2023-05-05T03:13:44.187Z,61.76
2023-05-05T03:16:18.942Z,61.37
2023-05-05T03:18:52.480Z,62.02
2023-05-05T03:21:24.646Z,61.09
2023-05-05T03:23:58.273Z,61.64
2023-05-05T03:26:29.815Z,61.96
2023-05-05T03:29:01.401Z,63.52
2023-05-05T03:31:33.513Z,62.29
2023-05-05T03:34:06.134Z,62.92
2023-05-05T03:36:38.822Z,63.24
2023-05-05T03:39:10.785Z,63.13
2023-05-05T03:41:42.470Z,62.84
2023-05-05T03:44:14.100Z,62.52
2023-05-05T03:46:45.766Z,61.89
2023-05-05T03:49:17.323Z,62.33
2023-05-05T03:51:48.973Z,62.20
2023-05-05T03:54:20.593Z,61.68
2023-05-05T03:56:52.253Z,61.23
2023-05-05T03:59:23.764Z,61.00
2023-05-05T04:01:55.418Z,61.00
2023-05-05T04:04:27.134Z,61.78
2023-05-05T04:06:58.717Z,61.21
2023-05-05T04:09:30.384Z,61.71
2023-05-05T04:12:03.110Z,62.21
2023-05-05T04:14:34.748Z,62.66
2023-05-05T04:17:06.505Z,62.21
2023-05-05T04:19:40.214Z,62.05
2023-05-05T04:22:13.900Z,62.47
2023-05-05T04:24:45.604Z,62.64
2023-05-05T04:27:17.239Z,61.77
2023-05-05T04:29:48.932Z,62.53
2023-05-05T04:32:20.842Z,62.06
2023-05-05T04:34:52.738Z,61.64
2023-05-05T04:37:25.657Z,60.61
2023-05-05T04:39:57.262Z,60.41
2023-05-05T04:42:28.965Z,60.30
2023-05-05T04:45:04.357Z,61.15
2023-05-05T04:47:40.622Z,60.92
2023-05-05T04:50:12.478Z,62.30
2023-05-05T04:52:44.073Z,61.12
2023-05-05T04:55:15.731Z,60.51
2023-05-05T04:57:47.337Z,59.54
2023-05-05T05:00:19.112Z,59.00
2023-05-05T05:02:50.745Z,58.38
2023-05-05T05:05:22.668Z,58.12
2023-05-05T05:07:54.322Z,57.81
2023-05-05T05:10:25.920Z,57.80
2023-05-05T05:12:57.533Z,58.16
2023-05-05T05:15:29.086Z,57.32
2023-05-05T05:18:00.807Z,56.87
2023-05-05T05:20:32.398Z,57.30
2023-05-05T05:23:04.610Z,56.96
2023-05-05T05:25:36.181Z,56.88
2023-05-05T05:28:10.768Z,55.94
2023-05-05T05:30:42.587Z,54.44
2023-05-05T05:33:14.524Z,54.99
2023-05-05T05:35:46.470Z,53.89
2023-05-05T05:38:18.102Z,52.92
2023-05-05T05:40:49.720Z,51.24
2023-05-05T05:43:21.332Z,48.54
2023-05-05T05:45:53.000Z,48.02
2023-05-05T05:48:28.413Z,48.32
2023-05-05T05:51:00.202Z,50.39
2023-05-05T05:53:31.982Z,50.13
2023-05-05T05:56:04.244Z,49.29
2023-05-05T05:58:35.820Z,47.73
2023-05-05T06:01:07.422Z,47.15
2023-05-05T06:03:39.021Z,46.65
2023-05-05T06:06:12.984Z,45.52
2023-05-05T06:08:44.652Z,44.01
2023-05-05T06:11:16.208Z,43.61
2023-05-05T06:13:47.834Z,43.50
2023-05-05T06:16:19.376Z,41.52
2023-05-05T06:18:51.025Z,42.03
2023-05-05T06:21:22.664Z,40.75
2023-05-05T06:23:54.260Z,40.03
2023-05-05T06:26:28.444Z,36.10
2023-05-05T06:29:00.065Z,36.47
2023-05-05T06:31:31.723Z,37.15
2023-05-05T06:34:03.616Z,38.16
2023-05-05T06:36:35.757Z,41.05
2023-05-05T06:39:07.749Z,41.07
2023-05-05T06:41:39.339Z,42.00
2023-05-05T06:44:11.409Z,42.56
2023-05-05T06:46:43.789Z,42.63
2023-05-05T06:49:15.518Z,40.82
2023-05-05T06:51:47.081Z,40.93
2023-05-05T06:54:18.699Z,42.72
2023-05-05T06:56:50.320Z,42.94
2023-05-05T06:59:24.222Z,44.45
2023-05-05T07:01:59.574Z,44.38
2023-05-05T07:04:31.657Z,44.61
2023-05-05T07:07:03.308Z,43.06
2023-05-05T07:09:34.923Z,44.03
2023-05-05T07:12:14.714Z,44.24
2023-05-05T07:14:47.001Z,45.60
2023-05-05T07:17:18.810Z,44.17
2023-05-05T07:19:51.401Z,43.75
2023-05-05T07:22:22.962Z,44.07
2023-05-05T07:24:54.568Z,42.97
2023-05-05T07:27:26.562Z,43.40
2023-05-05T07:29:58.498Z,43.28
2023-05-05T07:32:30.117Z,43.26
2023-05-05T07:35:01.802Z,42.54
2023-05-05T07:37:33.479Z,43.81
2023-05-05T07:40:06.401Z,42.45
2023-05-05T07:42:38.238Z,40.84
2023-05-05T07:45:10.318Z,37.72
2023-05-05T07:47:41.902Z,35.92
2023-05-05T07:50:13.674Z,37.00
2023-05-05T07:52:49.874Z,34.93
2023-05-05T07:55:27.886Z,33.31
2023-05-05T07:57:59.443Z,30.77
2023-05-05T08:00:31.010Z,29.38
2023-05-05T08:03:02.617Z,28.00
2023-05-05T08:05:34.272Z,26.55
2023-05-05T08:08:06.994Z,24.56
2023-05-05T08:10:38.675Z,25.33
2023-05-05T08:13:10.288Z,27.66
2023-05-05T08:15:41.950Z,27.65
2023-05-05T08:18:14.692Z,27.20
2023-05-05T08:20:46.570Z,27.02
2023-05-05T08:23:18.103Z,24.83
2023-05-05T08:25:49.875Z,24.47
2023-05-05T08:28:21.404Z,28.03
2023-05-05T08:30:53.044Z,26.54
2023-05-05T08:33:25.205Z,27.55
2023-05-05T08:35:56.924Z,25.91
2023-05-05T08:38:30.891Z,26.98
2023-05-05T08:41:02.817Z,27.76
2023-05-05T08:43:35.938Z,28.34
2023-05-05T08:46:12.273Z,28.51
2023-05-05T08:48:45.974Z,28.92
2023-05-05T08:51:19.805Z,28.55
2023-05-05T08:53:54.245Z,29.43
2023-05-05T08:56:31.138Z,27.93
2023-05-05T08:59:02.964Z,32.51
2023-05-05T09:01:36.135Z,31.12
2023-05-05T09:04:16.632Z,30.83
2023-05-05T09:06:48.273Z,29.26
2023-05-05T09:09:20.611Z,26.59
2023-05-05T09:11:53.738Z,29.81
2023-05-05T09:14:25.590Z,28.79
2023-05-05T09:16:59.243Z,27.25
2023-05-05T09:19:30.943Z,26.72
2023-05-05T09:22:02.518Z,27.02
2023-05-05T09:25:10.150Z,29.33
2023-05-05T09:27:49.391Z,29.73
2023-05-05T09:30:26.115Z,31.24
2023-05-05T09:32:57.725Z,32.91
2023-05-05T09:35:47.287Z,31.66
2023-05-05T09:38:20.816Z,32.30
2023-05-05T09:40:54.105Z,30.53
2023-05-05T09:43:25.687Z,29.06
2023-05-05T09:46:08.185Z,28.67
2023-05-05T09:48:43.081Z,33.02
2023-05-05T09:51:14.915Z,31.57
2023-05-05T09:53:46.521Z,30.08
2023-05-05T09:56:23.431Z,29.41
2023-05-05T09:59:09.423Z,29.76
2023-05-05T10:01:43.414Z,32.76
2023-05-05T10:04:28.561Z,34.28
2023-05-05T10:07:00.327Z,35.81
2023-05-05T10:09:32.733Z,34.33
2023-05-05T10:12:06.028Z,32.18
2023-05-05T10:14:37.800Z,32.24
2023-05-05T10:17:10.189Z,30.45
2023-05-05T10:19:42.726Z,30.63
2023-05-05T10:22:14.679Z,30.97
2023-05-05T10:25:01.732Z,30.69
2023-05-05T10:27:43.660Z,27.96
2023-05-05T10:30:24.481Z,27.00
2023-05-05T10:33:30.105Z,31.32
2023-05-05T10:36:05.361Z,31.30
2023-05-05T10:38:38.142Z,32.19
2023-05-05T10:41:11.564Z,30.11
2023-05-05T10:43:46.377Z,27.89
2023-05-05T10:46:18.342Z,26.85
2023-05-05T10:49:04.312Z,29.56
2023-05-05T10:52:30.820Z,28.79
2023-05-05T10:55:16.205Z,28.44
2023-05-05T10:57:53.567Z,33.03
2023-05-05T11:00:40.485Z,32.02
2023-05-05T11:03:18.397Z,29.66
2023-05-05T11:06:07.931Z,31.58
2023-05-05T11:08:44.264Z,30.10
2023-05-05T11:11:16.194Z,28.23
2023-05-05T11:14:07.762Z,29.64
2023-05-05T11:16:48.229Z,27.98
2023-05-05T11:19:46.091Z,29.23
2023-05-05T11:22:17.803Z,30.80
2023-05-05T11:24:49.362Z,30.57
2023-05-05T11:27:21.128Z,27.47
2023-05-05T11:30:04.667Z,27.86
2023-05-05T11:32:36.443Z,30.52
2023-05-05T11:35:08.175Z,29.43
2023-05-05T11:37:39.988Z,28.31
2023-05-05T11:40:42.816Z,35.43
2023-05-05T11:43:20.681Z,34.14
2023-05-05T11:46:19.560Z,31.27
2023-05-05T11:48:53.035Z,28.18
2023-05-05T11:51:25.422Z,28.95
2023-05-05T11:53:58.501Z,27.46
2023-05-05T11:56:30.782Z,29.47
2023-05-05T11:59:20.543Z,28.51
2023-05-05T12:01:52.796Z,33.77
2023-05-05T12:04:24.636Z,32.52
2023-05-05T12:06:58.507Z,30.71
2023-05-05T12:09:30.143Z,28.96
2023-05-05T12:12:02.730Z,27.77
2023-05-05T12:14:34.533Z,27.69
2023-05-05T12:17:12.647Z,27.92
2023-05-05T12:19:53.396Z,28.68
2023-05-05T12:22:26.788Z,28.26
2023-05-05T12:25:01.568Z,28.25
2023-05-05T12:27:36.476Z,28.83
2023-05-05T12:30:19.588Z,30.63
2023-05-05T12:33:03.108Z,32.32
2023-05-05T12:35:35.196Z,31.25
2023-05-05T12:38:07.242Z,30.04
2023-05-05T12:40:49.712Z,29.71
2023-05-05T12:43:31.919Z,29.67
2023-05-05T12:46:12.031Z,29.47
2023-05-05T12:48:46.398Z,28.83
2023-05-05T12:51:23.067Z,25.85
2023-05-05T12:54:12.041Z,25.78
2023-05-05T12:56:47.159Z,25.96
2023-05-05T12:59:21.834Z,27.85
2023-05-05T13:01:54.879Z,26.58
2023-05-05T13:04:28.522Z,26.29
2023-05-05T13:07:15.017Z,25.68
2023-05-05T13:09:50.652Z,24.40
2023-05-05T13:12:25.326Z,27.51
2023-05-05T13:14:56.990Z,25.46
2023-05-05T13:17:28.726Z,23.22
2023-05-05T13:20:02.363Z,25.04
2023-05-05T13:22:33.925Z,24.39
2023-05-05T13:25:06.145Z,25.32
2023-05-05T13:27:37.886Z,23.48
2023-05-05T13:30:10.399Z,22.39
2023-05-05T13:32:42.286Z,22.66
2023-05-05T13:35:16.008Z,22.30
2023-05-05T13:37:48.538Z,22.11
2023-05-05T13:40:20.087Z,23.44
2023-05-05T13:42:51.784Z,24.48
2023-05-05T13:45:23.302Z,23.12
2023-05-05T13:47:54.893Z,23.55
2023-05-05T13:50:26.563Z,22.95
2023-05-05T13:52:58.142Z,21.85
2023-05-05T13:55:30.027Z,22.54
2023-05-05T13:58:01.636Z,23.07
2023-05-05T14:00:34.649Z,24.39
2023-05-05T14:03:06.322Z,24.55
2023-05-05T14:05:44.587Z,25.23
2023-05-05T14:08:16.516Z,23.90
2023-05-05T14:10:49.541Z,24.97
2023-05-05T14:13:23.019Z,23.77
2023-05-05T14:15:54.631Z,22.36
2023-05-05T14:18:26.285Z,23.33
2023-05-05T14:20:57.907Z,23.60
2023-05-05T14:23:32.644Z,23.35
2023-05-05T14:26:04.262Z,22.48
2023-05-05T14:28:35.953Z,22.79
2023-05-05T14:31:07.653Z,23.92
2023-05-05T14:33:39.321Z,23.67
2023-05-05T14:36:11.125Z,24.76
2023-05-05T14:38:43.020Z,23.80
2023-05-05T14:41:14.806Z,23.91
2023-05-05T14:43:46.337Z,23.99
2023-05-05T14:46:21.170Z,23.79
2023-05-05T14:48:55.857Z,24.80
2023-05-05T14:51:27.701Z,25.81
2023-05-05T14:53:59.529Z,25.31
2023-05-05T14:56:31.155Z,27.15
2023-05-05T14:59:02.706Z,26.74
2023-05-05T15:01:34.374Z,26.16
2023-05-05T15:04:06.331Z,26.98
2023-05-05T15:06:37.990Z,27.62
2023-05-05T15:09:09.628Z,27.12
2023-05-05T15:11:41.418Z,27.94
2023-05-05T15:14:15.398Z,28.33
2023-05-05T15:16:47.013Z,27.86
2023-05-05T15:19:18.596Z,27.46
2023-05-05T15:21:53.271Z,28.63
2023-05-05T15:24:24.935Z,28.76
2023-05-05T15:26:57.532Z,29.10
2023-05-05T15:29:29.132Z,30.29
2023-05-05T15:32:01.158Z,30.51
2023-05-05T15:34:32.863Z,30.70
2023-05-05T15:37:04.717Z,31.36
2023-05-05T15:39:36.657Z,30.82
2023-05-05T15:42:08.303Z,31.61
2023-05-05T15:44:39.908Z,31.93
2023-05-05T15:47:11.536Z,31.72
2023-05-05T15:49:43.233Z,31.67
2023-05-05T15:52:14.956Z,32.16
2023-05-05T15:54:46.542Z,32.81
2023-05-05T15:57:18.256Z,31.77
2023-05-05T15:59:53.672Z,32.49
2023-05-05T16:02:25.598Z,33.24
2023-05-05T16:04:57.240Z,33.72
2023-05-05T16:07:28.968Z,34.21
2023-05-05T16:10:00.631Z,35.18
2023-05-05T16:12:32.295Z,35.39
2023-05-05T16:15:04.346Z,37.16
2023-05-05T16:17:39.525Z,38.05
2023-05-05T16:20:11.761Z,41.77
2023-05-05T16:22:43.366Z,43.11
2023-05-05T16:25:18.312Z,47.69
2023-05-05T16:27:52.254Z,47.58
2023-05-05T16:30:24.047Z,48.54
2023-05-05T16:32:55.707Z,46.83
2023-05-05T16:35:27.475Z,49.96
2023-05-05T16:38:01.988Z,53.37
2023-05-05T16:40:36.346Z,55.26
2023-05-05T16:43:08.080Z,58.03
2023-05-05T16:45:39.631Z,59.49
2023-05-05T16:48:11.450Z,57.73
2023-05-05T16:50:47.218Z,60.14
2023-05-05T16:53:18.926Z,59.88
2023-05-05T16:55:54.814Z,60.14
2023-05-05T16:58:26.859Z,60.38
2023-05-05T17:00:58.523Z,61.46
2023-05-05T17:03:30.398Z,61.84
2023-05-05T17:06:02.080Z,61.24
2023-05-05T17:08:34.316Z,60.93
2023-05-05T17:11:10.985Z,60.12
2023-05-05T17:13:46.130Z,58.60
2023-05-05T17:16:18.568Z,58.24
2023-05-05T17:18:50.142Z,58.26
2023-05-05T17:21:22.576Z,60.65
2023-05-05T17:23:54.183Z,62.24
2023-05-05T17:26:25.956Z,59.98
2023-05-05T17:28:57.576Z,60.64
2023-05-05T17:31:29.216Z,60.24
2023-05-05T17:34:00.946Z,61.28
2023-05-05T17:36:33.550Z,61.52
2023-05-05T17:39:05.964Z,60.97
2023-05-05T17:41:40.129Z,58.16
2023-05-05T17:44:11.842Z,56.50
2023-05-05T17:46:43.690Z,56.16
2023-05-05T17:49:15.427Z,55.04
2023-05-05T17:51:47.182Z,55.41
2023-05-05T17:54:19.060Z,54.51
2023-05-05T17:56:50.685Z,54.18
2023-05-05T17:59:26.072Z,54.87
2023-05-05T18:01:57.704Z,54.64
2023-05-05T18:04:31.491Z,54.06
2023-05-05T18:07:06.359Z,54.05
2023-05-05T18:09:39.582Z,55.25
2023-05-05T18:12:11.292Z,55.50
2023-05-05T18:14:43.153Z,56.29
2023-05-05T18:17:14.795Z,56.03
2023-05-05T18:19:49.106Z,58.95
2023-05-05T18:22:21.883Z,58.86
2023-05-05T18:24:58.934Z,58.76
2023-05-05T18:27:32.703Z,57.96
2023-05-05T18:30:05.307Z,56.70
2023-05-05T18:32:37.490Z,57.00
2023-05-05T18:35:10.060Z,56.97
2023-05-05T18:37:42.287Z,58.55
2023-05-05T18:40:14.164Z,56.65
2023-05-05T18:42:45.788Z,57.29
2023-05-05T18:45:17.537Z,57.20
2023-05-05T18:47:49.266Z,57.43
2023-05-05T18:50:20.928Z,57.84
2023-05-05T18:52:52.616Z,58.15
2023-05-05T18:55:24.312Z,57.30
2023-05-05T18:57:55.945Z,57.21
2023-05-05T19:00:27.604Z,57.22
2023-05-05T19:02:59.348Z,57.24
2023-05-05T19:05:34.061Z,56.88
2023-05-05T19:08:05.840Z,56.80
2023-05-05T19:10:40.672Z,60.76
2023-05-05T19:13:12.880Z,57.97
2023-05-05T19:15:48.301Z,56.86
2023-05-05T19:18:24.704Z,57.19
2023-05-05T19:20:56.415Z,57.85
2023-05-05T19:23:32.005Z,57.00
2023-05-05T19:26:04.517Z,56.38
2023-05-05T19:28:36.189Z,57.33
2023-05-05T19:31:07.745Z,56.61
2023-05-05T19:33:42.348Z,56.62
2023-05-05T19:36:14.063Z,57.95
2023-05-05T19:38:46.725Z,57.57
2023-05-05T19:41:18.522Z,57.76
2023-05-05T19:43:50.110Z,57.78
2023-05-05T19:46:23.773Z,57.82
2023-05-05T19:48:58.155Z,56.40
2023-05-05T19:51:30.044Z,56.43
2023-05-05T19:54:01.674Z,56.16
2023-05-05T19:56:33.343Z,55.84
2023-05-05T19:59:06.344Z,56.43
2023-05-05T20:01:41.436Z,56.32
2023-05-05T20:04:16.027Z,56.39
2023-05-05T20:06:47.618Z,56.75
2023-05-05T20:09:19.267Z,56.88
2023-05-05T20:11:53.558Z,56.60
2023-05-05T20:14:25.617Z,56.97
2023-05-05T20:16:57.183Z,56.68
2023-05-05T20:19:28.879Z,56.67
2023-05-05T20:22:02.545Z,56.94
2023-05-05T20:24:34.195Z,56.55
2023-05-05T20:27:06.979Z,56.83
2023-05-05T20:29:38.574Z,56.29
2023-05-05T20:32:10.243Z,55.89
2023-05-05T20:34:41.785Z,56.58
2023-05-05T20:37:14.003Z,58.04
2023-05-05T20:39:47.308Z,57.87
2023-05-05T20:42:19.811Z,58.15
2023-05-05T20:44:51.437Z,58.11
2023-05-05T20:47:23.056Z,58.25
2023-05-05T20:49:54.709Z,58.92
2023-05-05T20:52:26.272Z,58.06
2023-05-05T20:54:57.944Z,58.58
2023-05-05T20:57:29.558Z,59.79
2023-05-05T21:00:01.196Z,60.52
2023-05-05T21:02:32.857Z,59.91
2023-05-05T21:05:08.089Z,59.52
2023-05-05T21:07:39.945Z,60.21
2023-05-05T21:10:11.883Z,60.01
2023-05-05T21:12:43.692Z,59.61
2023-05-05T21:15:16.692Z,59.52
2023-05-05T21:17:48.512Z,60.86
2023-05-05T21:20:20.334Z,62.04
2023-05-05T21:22:51.935Z,61.12
2023-05-05T21:25:24.273Z,61.02
2023-05-05T21:27:56.271Z,60.82
2023-05-05T21:30:28.081Z,61.02
2023-05-05T21:33:00.152Z,61.87
2023-05-05T21:35:31.901Z,61.93
2023-05-05T21:38:03.635Z,61.07
2023-05-05T21:40:35.367Z,61.73
2023-05-05T21:43:07.006Z,62.16
2023-05-05T21:45:39.157Z,61.67
2023-05-05T21:48:10.796Z,62.12
2023-05-05T21:50:43.051Z,62.41
2023-05-05T21:53:14.701Z,63.27
2023-05-05T21:55:46.471Z,63.42
2023-05-05T21:58:18.034Z,63.74
2023-05-05T22:00:50.133Z,63.01
2023-05-05T22:03:21.765Z,62.77
2023-05-05T22:05:53.464Z,62.55
2023-05-05T22:08:25.087Z,62.92
2023-05-05T22:10:56.709Z,63.00
2023-05-05T22:13:28.304Z,63.07
2023-05-05T22:15:59.990Z,63.80
2023-05-05T22:18:35.685Z,63.88
2023-05-05T22:21:07.342Z,63.48
2023-05-05T22:23:41.477Z,62.86
2023-05-05T22:26:13.119Z,62.44
2023-05-05T22:28:44.713Z,62.06
2023-05-05T22:31:16.802Z,62.58
2023-05-05T22:33:48.468Z,62.14
2023-05-05T22:36:20.148Z,61.55
2023-05-05T22:38:54.592Z,61.13
2023-05-05T22:41:26.293Z,61.52
2023-05-05T22:43:58.001Z,61.30
2023-05-05T22:46:29.840Z,60.86
2023-05-05T22:49:04.701Z,59.99
2023-05-05T22:51:36.363Z,60.34
2023-05-05T22:54:08.004Z,59.70
2023-05-05T22:56:42.821Z,59.61
2023-05-05T22:59:14.604Z,59.48
2023-05-05T23:01:46.395Z,59.06
2023-05-05T23:04:18.244Z,58.99
2023-05-05T23:06:49.919Z,59.13
2023-05-05T23:09:21.607Z,58.91
2023-05-05T23:11:53.324Z,59.50
2023-05-05T23:14:24.930Z,59.51
2023-05-05T23:16:59.602Z,61.07
2023-05-05T23:19:32.622Z,60.23
2023-05-05T23:22:07.004Z,59.70
2023-05-05T23:24:38.616Z,59.55
2023-05-05T23:27:10.253Z,59.34
2023-05-05T23:29:44.996Z,59.64
2023-05-05T23:32:16.572Z,59.40
2023-05-05T23:34:51.043Z,59.62
2023-05-05T23:37:23.034Z,59.62
2023-05-05T23:39:54.705Z,59.31
2023-05-05T23:42:29.243Z,59.12
2023-05-05T23:45:03.286Z,58.98
2023-05-05T23:47:36.834Z,59.45
2023-05-05T23:50:09.316Z,59.39
2023-05-05T23:52:41.845Z,59.40
2023-05-05T23:55:14.408Z,59.18
2023-05-05T23:57:45.988Z,59.20
